createdAt,value
2022-12-11T00:01:31.861Z,8.82
2022-12-11T00:04:15.962Z,8.38
2022-12-11T00:06:59.973Z,8.50
2022-12-11T00:09:45.470Z,8.38
2022-12-11T00:12:31.562Z,8.43
2022-12-11T00:15:15.506Z,8.63
2022-12-11T00:17:59.601Z,7.53
2022-12-11T00:20:44.195Z,8.13
2022-12-11T00:23:28.058Z,8.15
2022-12-11T00:26:16.559Z,8.52
2022-12-11T00:29:00.490Z,7.90
2022-12-11T00:31:44.807Z,8.55
2022-12-11T00:34:28.924Z,8.07
2022-12-11T00:37:12.997Z,8.13
2022-12-11T00:39:57.117Z,9.30
2022-12-11T00:42:42.487Z,9.13
2022-12-11T00:45:26.361Z,8.50
2022-12-11T00:48:13.401Z,8.13
2022-12-11T00:50:57.897Z,8.10
2022-12-11T00:53:41.897Z,8.68
2022-12-11T00:56:26.000Z,9.10
2022-12-11T00:59:11.350Z,8.25
2022-12-11T01:01:55.403Z,8.13
2022-12-11T01:04:39.361Z,7.75
2022-12-11T01:07:23.452Z,8.63
2022-12-11T01:10:25.663Z,8.70
2022-12-11T01:13:12.898Z,8.60
2022-12-11T01:15:58.404Z,8.25
2022-12-11T01:18:42.978Z,8.25
2022-12-11T01:21:26.991Z,9.35
2022-12-11T01:24:10.922Z,8.43
2022-12-11T01:26:54.857Z,8.57
2022-12-11T01:29:38.828Z,8.60
2022-12-11T01:32:24.393Z,8.50
2022-12-11T01:35:10.271Z,8.25
2022-12-11T01:37:54.256Z,9.80
2022-12-11T01:40:38.027Z,7.53
2022-12-11T01:43:21.789Z,9.23
2022-12-11T01:46:05.669Z,9.77
2022-12-11T01:48:51.428Z,10.98
2022-12-11T01:51:40.023Z,11.05
2022-12-11T01:54:25.597Z,10.73
2022-12-11T01:57:10.679Z,10.60
2022-12-11T01:59:56.787Z,11.52
2022-12-11T02:02:40.559Z,10.57
2022-12-11T02:05:25.855Z,11.13
2022-12-11T02:08:10.278Z,12.67
2022-12-11T02:11:07.800Z,13.13
2022-12-11T02:13:58.848Z,12.82
2022-12-11T02:16:48.594Z,11.33
2022-12-11T02:19:46.343Z,12.55
2022-12-11T02:22:50.103Z,12.32
2022-12-11T02:25:43.201Z,12.27
2022-12-11T02:28:34.662Z,12.20
2022-12-11T02:31:25.670Z,12.00
2022-12-11T02:34:14.927Z,12.15
2022-12-11T02:37:03.348Z,11.30
2022-12-11T02:39:50.409Z,12.35
2022-12-11T02:42:35.517Z,11.23
2022-12-11T02:45:23.191Z,10.35
2022-12-11T02:48:09.873Z,10.73
2022-12-11T02:50:57.985Z,11.45
2022-12-11T02:53:45.188Z,10.97
2022-12-11T02:56:34.310Z,10.82
2022-12-11T02:59:23.915Z,12.18
2022-12-11T03:02:09.677Z,10.77
2022-12-11T03:04:53.782Z,10.77
2022-12-11T03:07:40.833Z,10.73
2022-12-11T03:10:25.320Z,11.05
2022-12-11T03:13:09.262Z,11.18
2022-12-11T03:16:05.743Z,10.73
2022-12-11T03:19:00.467Z,10.85
2022-12-11T03:21:50.665Z,10.63
2022-12-11T03:24:40.506Z,10.98
2022-12-11T03:27:28.154Z,11.77
2022-12-11T03:30:17.509Z,11.70
2022-12-11T03:33:06.626Z,11.80
2022-12-11T03:35:57.395Z,11.13
2022-12-11T03:38:46.553Z,10.70
2022-12-11T03:41:34.476Z,11.83
2022-12-11T03:44:19.327Z,11.37
2022-12-11T03:47:08.062Z,11.85
2022-12-11T03:49:55.247Z,11.52
2022-12-11T03:52:45.983Z,12.23
2022-12-11T03:55:31.880Z,12.47
2022-12-11T03:58:15.960Z,12.20
2022-12-11T04:00:59.970Z,12.25
2022-12-11T04:03:43.991Z,13.43
2022-12-11T04:06:27.974Z,19.23
2022-12-11T04:09:13.540Z,21.27
2022-12-11T04:11:57.475Z,21.40
2022-12-11T04:14:59.427Z,24.87
2022-12-11T04:18:00.706Z,15.90
2022-12-11T04:21:04.209Z,12.60
2022-12-11T04:24:05.220Z,11.33
2022-12-11T04:26:50.258Z,11.50
2022-12-11T04:29:33.990Z,12.37
2022-12-11T04:32:17.602Z,14.18
2022-12-11T04:35:01.436Z,11.75
2022-12-11T04:37:46.895Z,12.27
2022-12-11T04:40:30.722Z,11.02
2022-12-11T04:43:15.837Z,11.77
2022-12-11T04:46:03.882Z,11.75
2022-12-11T04:48:53.855Z,11.50
2022-12-11T04:51:39.328Z,10.93
2022-12-11T04:54:23.030Z,11.00
2022-12-11T04:57:07.074Z,12.02
2022-12-11T04:59:52.247Z,10.82
2022-12-11T05:02:37.210Z,10.68
2022-12-11T05:05:21.005Z,10.80
2022-12-11T05:08:05.570Z,10.63
2022-12-11T05:10:56.961Z,10.55
2022-12-11T05:13:41.027Z,10.70
2022-12-11T05:16:26.198Z,11.38
2022-12-11T05:19:09.973Z,11.80
2022-12-11T05:21:53.862Z,11.32
2022-12-11T05:24:37.506Z,10.38
2022-12-11T05:27:21.285Z,11.35
2022-12-11T05:30:05.732Z,11.38
2022-12-11T05:32:50.876Z,11.48
2022-12-11T05:35:34.841Z,12.70
2022-12-11T05:38:18.600Z,10.90
2022-12-11T05:41:04.163Z,10.90
2022-12-11T05:43:48.573Z,11.15
2022-12-11T05:46:32.674Z,11.35
2022-12-11T05:49:20.061Z,10.43
2022-12-11T05:52:04.017Z,10.27
2022-12-11T05:54:49.985Z,10.55
2022-12-11T05:57:33.983Z,10.25
2022-12-11T06:00:17.782Z,9.75
2022-12-11T06:03:01.635Z,9.77
2022-12-11T06:05:46.938Z,9.95
2022-12-11T06:08:30.996Z,9.38
2022-12-11T06:11:18.382Z,10.23
2022-12-11T06:14:05.834Z,9.48
2022-12-11T06:16:50.205Z,9.20
2022-12-11T06:19:36.939Z,9.15
2022-12-11T06:22:22.277Z,9.52
2022-12-11T06:25:07.088Z,9.60
2022-12-11T06:27:51.808Z,8.57
2022-12-11T06:30:38.620Z,9.38
2022-12-11T06:33:23.142Z,10.20
2022-12-11T06:36:09.189Z,8.68
2022-12-11T06:38:55.930Z,9.38
2022-12-11T06:41:39.971Z,9.10
2022-12-11T06:44:25.110Z,8.63
2022-12-11T06:47:09.090Z,8.65
2022-12-11T06:49:53.101Z,8.43
2022-12-11T06:52:37.207Z,8.35
2022-12-11T06:55:22.804Z,12.48
2022-12-11T06:58:07.046Z,8.80
2022-12-11T07:00:51.251Z,8.95
2022-12-11T07:03:35.667Z,10.65
2022-12-11T07:06:19.775Z,11.80
2022-12-11T07:09:05.648Z,9.60
2022-12-11T07:11:52.740Z,9.57
2022-12-11T07:14:36.947Z,22.00
2022-12-11T07:17:20.999Z,11.10
2022-12-11T07:20:05.792Z,8.20
2022-12-11T07:22:49.988Z,8.57
2022-12-11T07:25:34.140Z,7.78
2022-12-11T07:28:19.596Z,8.32
2022-12-11T07:31:06.872Z,8.77
2022-12-11T07:33:55.505Z,8.20
2022-12-11T07:36:39.825Z,7.78
2022-12-11T07:39:23.792Z,9.75
2022-12-11T07:42:07.903Z,8.70
2022-12-11T07:44:53.451Z,9.07
2022-12-11T07:47:37.450Z,7.10
2022-12-11T07:50:21.554Z,7.35
2022-12-11T07:53:06.000Z,6.22
2022-12-11T07:55:50.261Z,7.10
2022-12-11T07:58:34.465Z,6.78
2022-12-11T08:01:21.585Z,6.57
2022-12-11T08:04:07.435Z,7.53
2022-12-11T08:06:51.486Z,7.13
2022-12-11T08:09:35.538Z,7.55
2022-12-11T08:12:19.606Z,6.85
2022-12-11T08:15:03.748Z,6.97
2022-12-11T08:17:49.684Z,6.20
2022-12-11T08:20:33.834Z,6.15
2022-12-11T08:23:17.902Z,6.70
2022-12-11T08:26:04.893Z,6.10
2022-12-11T08:28:49.116Z,6.05
2022-12-11T08:31:33.510Z,5.82
2022-12-11T08:34:18.980Z,4.80
2022-12-11T08:37:04.038Z,6.85
2022-12-11T08:39:48.549Z,4.55
2022-12-11T08:42:32.781Z,5.13
2022-12-11T08:45:17.185Z,4.95
2022-12-11T08:48:01.837Z,4.53
2022-12-11T08:50:47.861Z,4.63
2022-12-11T08:53:33.235Z,4.60
2022-12-11T08:56:21.651Z,3.92
2022-12-11T08:59:06.437Z,5.20
2022-12-11T09:01:50.497Z,5.88
2022-12-11T09:04:34.714Z,4.40
2022-12-11T09:07:20.121Z,4.30
2022-12-11T09:10:04.279Z,4.60
2022-12-11T09:12:48.136Z,5.03
2022-12-11T09:15:32.342Z,5.00
2022-12-11T09:18:16.359Z,3.50
2022-12-11T09:21:02.163Z,4.03
2022-12-11T09:23:48.103Z,3.78
2022-12-11T09:26:32.088Z,3.10
2022-12-11T09:29:16.205Z,3.75
2022-12-11T09:32:00.233Z,3.90
2022-12-11T09:34:44.374Z,3.92
2022-12-11T09:37:28.331Z,3.70
2022-12-11T09:40:15.114Z,3.25
2022-12-11T09:43:03.941Z,3.40
2022-12-11T09:45:48.435Z,3.78
2022-12-11T09:48:35.080Z,3.50
2022-12-11T09:51:24.228Z,5.80
2022-12-11T09:54:08.180Z,5.30
2022-12-11T09:57:00.022Z,7.47
2022-12-11T10:00:04.192Z,6.70
2022-12-11T10:03:13.433Z,4.03
2022-12-11T10:06:05.294Z,7.85
2022-12-11T10:09:02.138Z,4.05
2022-12-11T10:11:58.263Z,8.88
2022-12-11T10:14:55.333Z,6.80
2022-12-11T10:17:41.863Z,3.80
2022-12-11T10:20:31.246Z,4.43
2022-12-11T10:23:20.946Z,4.13
2022-12-11T10:26:08.699Z,4.20
2022-12-11T10:28:54.495Z,3.88
2022-12-11T10:31:46.293Z,3.80
2022-12-11T10:34:35.417Z,5.30
2022-12-11T10:37:19.983Z,4.80
2022-12-11T10:40:04.177Z,4.38
2022-12-11T10:42:54.524Z,5.00
2022-12-11T10:45:40.019Z,5.15
2022-12-11T10:48:23.943Z,5.13
2022-12-11T10:51:08.330Z,3.72
2022-12-11T10:53:52.832Z,4.20
2022-12-11T10:56:39.181Z,4.13
2022-12-11T10:59:27.248Z,4.20
2022-12-11T11:02:24.496Z,5.90
2022-12-11T11:05:17.095Z,5.50
2022-12-11T11:08:15.320Z,19.33
2022-12-11T11:11:01.240Z,9.48
2022-12-11T11:13:45.506Z,18.75
2022-12-11T11:16:29.589Z,13.07
2022-12-11T11:19:23.637Z,11.18
2022-12-11T11:22:13.875Z,20.38
2022-12-11T11:24:59.797Z,6.10
2022-12-11T11:27:47.192Z,11.55
2022-12-11T11:30:35.228Z,10.60
2022-12-11T11:33:21.181Z,55.95
2022-12-11T11:36:08.754Z,4.68
2022-12-11T11:39:07.435Z,4.53
2022-12-11T11:41:55.986Z,3.92
2022-12-11T11:44:44.451Z,5.40
2022-12-11T11:47:32.987Z,6.25
2022-12-11T11:50:21.509Z,4.65
2022-12-11T11:53:13.407Z,6.93
2022-12-11T11:56:07.030Z,4.45
2022-12-11T11:59:02.340Z,3.58
2022-12-11T12:01:46.441Z,3.83
2022-12-11T12:04:34.732Z,3.90
2022-12-11T12:07:34.474Z,4.28
2022-12-11T12:10:26.581Z,5.35
2022-12-11T12:13:48.017Z,4.10
2022-12-11T12:16:52.863Z,4.63
2022-12-11T12:19:48.630Z,4.20
2022-12-11T12:22:48.915Z,4.60
2022-12-11T12:25:40.926Z,4.22
2022-12-11T12:28:35.460Z,4.55
2022-12-11T12:31:33.448Z,6.40
2022-12-11T12:34:28.808Z,7.40
2022-12-11T12:37:28.394Z,5.85
2022-12-11T12:40:20.363Z,5.28
2022-12-11T12:43:32.722Z,4.07
2022-12-11T12:46:27.189Z,7.13
2022-12-11T12:49:16.824Z,4.68
2022-12-11T12:52:01.758Z,5.25
2022-12-11T12:55:09.195Z,5.30
2022-12-11T12:57:55.925Z,5.68
2022-12-11T13:00:43.773Z,5.78
2022-12-11T13:03:33.074Z,5.80
2022-12-11T13:06:17.120Z,5.43
2022-12-11T13:09:14.449Z,4.22
2022-12-11T13:11:58.774Z,5.30
2022-12-11T13:14:42.768Z,8.73
2022-12-11T13:17:38.699Z,21.55
2022-12-11T13:20:25.353Z,11.00
2022-12-11T13:23:21.625Z,9.57
2022-12-11T13:26:06.057Z,8.20
2022-12-11T13:28:51.754Z,5.25
2022-12-11T13:31:37.342Z,5.00
2022-12-11T13:34:25.149Z,6.93
2022-12-11T13:37:26.029Z,6.78
2022-12-11T13:40:17.579Z,6.07
2022-12-11T13:43:04.230Z,16.48
2022-12-11T13:45:51.509Z,12.32
2022-12-11T13:48:39.010Z,13.60
2022-12-11T13:51:26.274Z,11.80
2022-12-11T13:54:17.773Z,8.40
2022-12-11T13:57:05.332Z,9.25
2022-12-11T13:59:51.326Z,12.27
2022-12-11T14:02:39.428Z,9.25
2022-12-11T14:05:23.886Z,7.00
2022-12-11T14:08:11.196Z,8.00
2022-12-11T14:10:55.758Z,6.20
2022-12-11T14:13:42.318Z,6.93
2022-12-11T14:16:28.009Z,6.30
2022-12-11T14:19:18.111Z,5.63
2022-12-11T14:22:03.505Z,5.82
2022-12-11T14:24:53.913Z,7.32
2022-12-11T14:27:37.708Z,6.32
2022-12-11T14:30:23.438Z,7.22
2022-12-11T14:33:07.561Z,7.32
2022-12-11T14:35:53.833Z,6.35
2022-12-11T14:38:44.590Z,7.65
2022-12-11T14:41:36.678Z,6.32
2022-12-11T14:44:25.056Z,7.53
2022-12-11T14:47:15.428Z,7.45
2022-12-11T14:50:04.034Z,8.00
2022-12-11T14:52:50.135Z,8.30
2022-12-11T14:55:36.933Z,7.47
2022-12-11T14:58:25.088Z,12.77
2022-12-11T15:01:22.885Z,13.35
2022-12-11T15:04:17.500Z,8.23
2022-12-11T15:07:01.891Z,7.45
2022-12-11T15:09:48.005Z,8.80
2022-12-11T15:12:32.435Z,8.52
2022-12-11T15:15:19.218Z,8.50
2022-12-11T15:18:08.297Z,8.35
2022-12-11T15:20:54.566Z,6.72
2022-12-11T15:23:51.605Z,7.45
2022-12-11T15:26:38.021Z,6.97
2022-12-11T15:29:27.805Z,5.82
2022-12-11T15:32:20.144Z,6.88
2022-12-11T15:35:04.163Z,6.75
2022-12-11T15:37:54.120Z,7.07
2022-12-11T15:40:40.256Z,7.05
2022-12-11T15:43:24.305Z,5.82
2022-12-11T15:46:08.589Z,7.13
2022-12-11T15:48:53.902Z,7.30
2022-12-11T15:51:42.613Z,7.28
2022-12-11T15:54:26.840Z,7.65
2022-12-11T15:57:23.397Z,11.07
2022-12-11T16:00:08.744Z,11.45
2022-12-11T16:02:52.791Z,9.43
2022-12-11T16:05:38.038Z,5.43
2022-12-11T16:08:23.548Z,5.28
2022-12-11T16:11:07.451Z,6.00
2022-12-11T16:13:52.242Z,5.60
2022-12-11T16:16:35.985Z,5.63
2022-12-11T16:19:19.722Z,6.20
2022-12-11T16:22:05.288Z,7.32
2022-12-11T16:24:49.046Z,5.95
2022-12-11T16:27:33.035Z,8.43
2022-12-11T16:30:16.876Z,5.88
2022-12-11T16:33:00.597Z,6.32
2022-12-11T16:35:44.447Z,8.70
2022-12-11T16:38:29.544Z,8.15
2022-12-11T16:41:13.366Z,8.20
2022-12-11T16:43:57.225Z,7.07
2022-12-11T16:46:41.143Z,7.80
2022-12-11T16:49:25.009Z,5.97
2022-12-11T16:52:08.999Z,8.03
2022-12-11T16:54:54.147Z,7.30
2022-12-11T16:57:38.118Z,6.78
2022-12-11T17:00:22.111Z,4.83
2022-12-11T17:03:06.026Z,5.03
2022-12-11T17:05:49.844Z,6.53
2022-12-11T17:08:33.536Z,7.20
2022-12-11T17:11:21.781Z,6.63
2022-12-11T17:14:05.436Z,5.33
2022-12-11T17:16:49.279Z,6.70
2022-12-11T17:19:33.172Z,7.05
2022-12-11T17:22:17.062Z,6.00
2022-12-11T17:25:01.011Z,6.80
2022-12-11T17:27:46.408Z,7.83
2022-12-11T17:30:30.476Z,7.20
2022-12-11T17:33:14.404Z,6.20
2022-12-11T17:36:01.320Z,18.63
2022-12-11T17:38:45.699Z,10.07
2022-12-11T17:41:29.475Z,10.27
2022-12-11T17:44:14.631Z,11.32
2022-12-11T17:46:59.107Z,10.43
2022-12-11T17:49:42.939Z,13.37
2022-12-11T17:52:32.367Z,11.38
2022-12-11T17:55:18.158Z,8.50
2022-12-11T17:58:01.933Z,6.87
2022-12-11T18:00:53.238Z,7.63
2022-12-11T18:03:38.149Z,10.73
2022-12-11T18:06:23.230Z,8.90
2022-12-11T18:09:07.301Z,11.07
2022-12-11T18:11:51.962Z,11.80
2022-12-11T18:14:36.280Z,10.50
2022-12-11T18:17:21.422Z,9.93
2022-12-11T18:20:06.274Z,11.95
2022-12-11T18:22:49.943Z,10.90
2022-12-11T18:25:34.214Z,17.17
2022-12-11T18:28:18.057Z,25.88
2022-12-11T18:31:02.680Z,18.23
2022-12-11T18:33:48.354Z,16.67
2022-12-11T18:36:32.180Z,12.40
2022-12-11T18:39:15.941Z,9.15
2022-12-11T18:42:31.085Z,10.05
2022-12-11T18:45:03.898Z,10.35
2022-12-11T18:47:48.027Z,6.20
2022-12-11T18:50:33.111Z,4.78
2022-12-11T18:53:17.252Z,4.53
2022-12-11T18:56:05.798Z,4.63
2022-12-11T18:58:52.220Z,5.75
2022-12-11T19:01:36.762Z,4.63
2022-12-11T19:04:20.455Z,3.85
2022-12-11T19:07:05.754Z,3.22
2022-12-11T19:09:49.590Z,5.40
2022-12-11T19:12:33.291Z,5.23
2022-12-11T19:15:22.179Z,4.97
2022-12-11T19:18:07.637Z,4.60
2022-12-11T19:20:56.735Z,4.83
2022-12-11T19:23:48.767Z,4.40
2022-12-11T19:26:32.498Z,4.70
2022-12-11T19:29:21.405Z,4.27
2022-12-11T19:32:06.123Z,4.70
2022-12-11T19:34:54.561Z,4.73
2022-12-11T19:37:38.390Z,4.50
2022-12-11T19:40:26.377Z,4.10
2022-12-11T19:43:11.247Z,3.93
2022-12-11T19:45:54.989Z,3.30
2022-12-11T19:48:40.923Z,3.97
2022-12-11T19:51:26.874Z,4.17
2022-12-11T19:54:14.820Z,3.63
2022-12-11T19:56:59.968Z,3.80
2022-12-11T19:59:43.702Z,3.27
2022-12-11T20:02:27.668Z,4.13
2022-12-11T20:05:12.081Z,3.13
2022-12-11T20:07:57.503Z,3.10
2022-12-11T20:10:49.146Z,3.80
2022-12-11T20:13:34.668Z,2.67
2022-12-11T20:16:28.899Z,2.27
2022-12-11T20:19:24.618Z,2.60
2022-12-11T20:22:09.296Z,2.17
2022-12-11T20:24:53.342Z,2.37
2022-12-11T20:27:38.579Z,3.77
2022-12-11T20:30:24.797Z,3.27
2022-12-11T20:33:08.674Z,3.80
2022-12-11T20:35:52.677Z,3.90
2022-12-11T20:38:37.348Z,3.93
2022-12-11T20:41:23.823Z,3.47
2022-12-11T20:44:07.832Z,3.60
2022-12-11T20:46:53.314Z,2.90
2022-12-11T20:49:37.625Z,3.60
2022-12-11T20:52:21.656Z,3.50
2022-12-11T20:55:06.337Z,3.40
2022-12-11T20:57:50.198Z,3.33
2022-12-11T21:00:34.656Z,3.67
2022-12-11T21:03:20.217Z,4.17
2022-12-11T21:06:04.144Z,4.23
2022-12-11T21:08:48.090Z,4.10
2022-12-11T21:11:32.084Z,4.97
2022-12-11T21:14:16.503Z,4.20
2022-12-11T21:17:01.161Z,4.03
2022-12-11T21:19:46.600Z,3.77
2022-12-11T21:22:30.522Z,3.83
2022-12-11T21:25:14.781Z,4.07
2022-12-11T21:27:58.825Z,5.50
2022-12-11T21:30:42.911Z,4.90
2022-12-11T21:33:26.887Z,4.47
2022-12-11T21:36:15.347Z,4.53
2022-12-11T21:39:00.266Z,2.97
2022-12-11T21:41:44.234Z,3.40
2022-12-11T21:47:32.831Z,4.23
2022-12-11T21:50:16.818Z,4.40
2022-12-11T21:53:02.895Z,4.83
2022-12-11T21:55:46.816Z,3.60
2022-12-11T21:58:30.734Z,4.20
2022-12-11T22:01:16.788Z,3.63
2022-12-11T22:04:01.073Z,4.07
2022-12-11T22:06:47.394Z,4.00
2022-12-11T22:09:32.876Z,3.37
2022-12-11T22:12:23.684Z,3.40
2022-12-11T22:15:09.488Z,3.10
2022-12-11T22:17:53.742Z,2.60
2022-12-11T22:20:37.699Z,2.50
2022-12-11T22:23:21.871Z,3.83
2022-12-11T22:26:09.497Z,5.10
2022-12-11T22:28:54.030Z,4.77
2022-12-11T22:31:38.119Z,5.07
2022-12-11T22:34:22.235Z,5.07
2022-12-11T22:37:06.174Z,3.57
2022-12-11T22:39:50.194Z,4.33
2022-12-11T22:42:35.655Z,4.23
2022-12-11T22:45:20.111Z,4.50
2022-12-11T22:48:04.137Z,4.23
2022-12-11T22:50:48.120Z,4.10
2022-12-11T22:53:32.018Z,3.50
2022-12-11T22:56:16.007Z,3.10
2022-12-11T22:59:01.423Z,3.33
2022-12-11T23:01:45.618Z,2.90
2022-12-11T23:04:29.534Z,2.80
2022-12-11T23:07:13.468Z,3.00
2022-12-11T23:09:57.438Z,2.93
2022-12-11T23:12:41.459Z,2.70
2022-12-11T23:15:27.061Z,2.47
2022-12-11T23:18:10.930Z,2.40
2022-12-11T23:20:54.812Z,2.70
2022-12-11T23:23:38.698Z,2.23
2022-12-11T23:26:23.483Z,2.40
2022-12-11T23:29:07.943Z,2.23
2022-12-11T23:31:53.380Z,2.90
2022-12-11T23:34:37.783Z,2.70
2022-12-11T23:37:21.752Z,3.50
2022-12-11T23:40:06.750Z,3.33
2022-12-11T23:42:50.757Z,3.70
2022-12-11T23:45:34.672Z,3.73
2022-12-11T23:48:19.871Z,4.13
2022-12-11T23:51:06.216Z,4.03
2022-12-11T23:53:50.437Z,4.00
2022-12-11T23:56:34.520Z,3.90
2022-12-11T23:59:18.427Z,3.50
